Time;durP1;ratioP1;P1;durP2;ratioP2;P2;SDS_P1;SDS_P2;PMS_P1;PMS_P2;Temp;Humidity;BMP_temperature;BMP_pressure;BME280_temperature;BME280_humidity;BME280_pressure;Samples;Min_cycle;Max_cycle;Signal;HPM_P1;HPM_P2
2024/01/27 00:00:32;;;;;;;7.60;1.55;;;3.30;99.90;;;;;;4900005;29;20049;-73
2024/01/27 00:02:59;;;;;;;7.82;2.15;;;3.30;99.90;;;;;;4900290;29;20064;-73
2024/01/27 00:05:26;;;;;;;6.05;2.28;;;3.30;99.90;;;;;;4894982;29;20045;-73
2024/01/27 00:07:57;;;;;;;6.20;1.90;;;3.30;99.90;;;;;;4869854;29;20045;-73
2024/01/27 00:10:24;;;;;;;5.65;1.85;;;3.40;99.90;;;;;;4887853;29;20525;-73
2024/01/27 00:12:51;;;;;;;7.25;1.98;;;3.40;99.90;;;;;;4883436;29;20052;-73
2024/01/27 00:15:18;;;;;;;10.38;3.08;;;3.30;99.90;;;;;;4880360;29;20052;-73
2024/01/27 00:17:45;;;;;;;5.75;1.67;;;3.30;99.90;;;;;;4898425;29;20051;-73
2024/01/27 00:20:13;;;;;;;9.25;2.05;;;3.30;99.90;;;;;;4898896;29;20493;-72
2024/01/27 00:22:40;;;;;;;5.72;2.15;;;3.30;99.90;;;;;;4898920;29;20085;-72
2024/01/27 00:25:07;;;;;;;8.32;1.75;;;3.30;99.90;;;;;;4883183;29;20053;-72
2024/01/27 00:27:34;;;;;;;7.78;1.77;;;3.30;99.90;;;;;;4898775;29;20048;-73
2024/01/27 00:30:01;;;;;;;6.32;1.95;;;3.30;99.90;;;;;;4883186;29;20056;-73
2024/01/27 00:32:28;;;;;;;10.18;2.50;;;3.30;99.90;;;;;;4880007;29;20057;-73
2024/01/27 00:34:55;;;;;;;9.05;2.10;;;3.20;99.90;;;;;;4882084;29;20489;-73
2024/01/27 00:37:22;;;;;;;7.65;2.17;;;3.20;99.90;;;;;;4898622;29;20072;-72
2024/01/27 00:39:49;;;;;;;7.50;1.92;;;3.20;99.90;;;;;;4883021;29;20053;-73
2024/01/27 00:42:18;;;;;;;5.18;2.08;;;3.20;99.90;;;;;;4883077;29;20458;-74
2024/01/27 00:44:45;;;;;;;7.47;1.67;;;3.20;99.90;;;;;;4883514;29;20059;-73
2024/01/27 00:47:12;;;;;;;6.63;1.73;;;3.20;99.90;;;;;;4898425;29;20053;-73
2024/01/27 00:49:39;;;;;;;5.30;1.40;;;3.20;99.90;;;;;;4899561;29;20056;-73
2024/01/27 00:52:06;;;;;;;5.18;1.70;;;3.20;99.90;;;;;;4898474;29;20488;-72
2024/01/27 00:54:33;;;;;;;3.15;1.13;;;3.20;99.90;;;;;;4898426;29;20055;-73
2024/01/27 00:57:00;;;;;;;4.93;1.85;;;3.10;99.90;;;;;;4898160;29;20091;-72
2024/01/27 00:59:27;;;;;;;4.60;1.10;;;3.10;99.90;;;;;;4898025;29;20068;-73
2024/01/27 01:01:54;;;;;;;6.97;1.25;;;3.10;99.90;;;;;;4882666;29;20055;-73
2024/01/27 01:04:21;;;;;;;4.97;1.70;;;3.10;99.90;;;;;;4897477;29;20045;-73
2024/01/27 01:06:48;;;;;;;5.88;1.60;;;3.10;99.90;;;;;;4882647;29;20060;-73
2024/01/27 01:09:15;;;;;;;3.00;0.95;;;3.10;99.90;;;;;;4882547;29;20071;-73
2024/01/27 01:11:42;;;;;;;3.65;1.08;;;3.10;99.90;;;;;;4880428;29;20095;-73
2024/01/27 01:14:09;;;;;;;4.28;1.20;;;3.10;99.90;;;;;;4899204;29;20885;-73
2024/01/27 01:16:36;;;;;;;6.57;1.60;;;3.10;99.90;;;;;;4897910;29;20047;-73
2024/01/27 01:19:03;;;;;;;6.22;1.90;;;3.00;99.90;;;;;;4866791;29;20040;-73
2024/01/27 01:21:31;;;;;;;7.43;2.20;;;3.00;99.90;;;;;;4882518;29;20064;-73
2024/01/27 01:23:58;;;;;;;4.70;1.85;;;3.10;99.90;;;;;;4867001;29;20056;-73
2024/01/27 01:26:25;;;;;;;5.35;1.52;;;3.00;99.90;;;;;;4897663;29;20082;-73
2024/01/27 01:28:52;;;;;;;3.90;1.08;;;3.10;99.90;;;;;;4872621;29;20431;-72
2024/01/27 01:31:19;;;;;;;6.32;1.75;;;3.00;99.90;;;;;;4897445;29;20131;-73
2024/01/27 01:33:46;;;;;;;4.75;1.85;;;3.00;99.90;;;;;;4878745;29;20049;-73
2024/01/27 01:36:13;;;;;;;4.80;1.88;;;3.00;99.90;;;;;;4896745;29;20143;-73
2024/01/27 01:38:40;;;;;;;5.40;1.50;;;3.00;99.90;;;;;;4898616;29;20041;-73
2024/01/27 01:41:07;;;;;;;5.30;1.73;;;3.00;99.90;;;;;;4898765;29;20494;-73
2024/01/27 01:43:34;;;;;;;8.55;2.08;;;3.00;99.90;;;;;;4881925;29;20037;-73
2024/01/27 01:46:02;;;;;;;4.80;1.02;;;3.00;99.90;;;;;;4897360;29;20044;-73
2024/01/27 01:48:29;;;;;;;5.70;1.00;;;3.00;99.90;;;;;;4897207;29;20490;-73
2024/01/27 01:50:58;;;;;;;2.07;0.60;;;2.90;99.90;;;;;;4897298;29;20079;-73
2024/01/27 01:53:25;;;;;;;3.22;1.05;;;2.90;99.90;;;;;;4881712;29;20083;-73
2024/01/27 01:55:53;;;;;;;3.30;0.93;;;2.90;99.90;;;;;;4881393;29;20068;-73
2024/01/27 01:58:19;;;;;;;3.60;0.98;;;2.80;99.90;;;;;;4897035;29;20059;-73
2024/01/27 02:00:46;;;;;;;7.68;1.65;;;2.80;99.90;;;;;;4881340;29;20483;-73
2024/01/27 02:03:14;;;;;;;5.95;1.30;;;2.80;99.90;;;;;;4897045;29;20092;-73
2024/01/27 02:05:41;;;;;;;4.68;0.95;;;2.80;99.90;;;;;;4898275;29;20471;-73
2024/01/27 02:08:08;;;;;;;2.53;0.70;;;2.80;99.90;;;;;;4881518;29;20050;-73
2024/01/27 02:10:39;;;;;;;2.80;1.00;;;2.70;99.90;;;;;;4896924;29;20087;-73
2024/01/27 02:13:19;;;;;;;5.27;1.07;;;2.70;99.90;;;;;;4881915;29;20048;-73
2024/01/27 02:15:48;;;;;;;4.00;0.90;;;2.70;99.90;;;;;;4893566;29;20078;-73
2024/01/27 02:18:15;;;;;;;1.88;0.57;;;2.70;99.90;;;;;;4881572;29;20101;-73
2024/01/27 02:20:43;;;;;;;2.60;0.93;;;2.70;99.90;;;;;;4897930;29;20045;-73
2024/01/27 02:23:10;;;;;;;3.58;0.93;;;2.60;99.90;;;;;;4896877;29;20554;-73
2024/01/27 02:25:37;;;;;;;3.30;0.60;;;2.60;99.90;;;;;;4881155;29;20104;-73
2024/01/27 02:28:04;;;;;;;3.67;0.60;;;2.60;99.90;;;;;;4896583;29;20417;-73
2024/01/27 02:30:31;;;;;;;2.23;0.70;;;2.60;99.90;;;;;;4896573;29;20052;-74
2024/01/27 02:32:58;;;;;;;2.90;0.70;;;2.50;99.90;;;;;;4896666;29;20510;-74
2024/01/27 02:35:25;;;;;;;6.43;1.43;;;2.50;99.90;;;;;;4881172;29;20231;-73
2024/01/27 02:37:52;;;;;;;2.55;0.38;;;2.50;99.90;;;;;;4880761;29;20040;-74
2024/01/27 02:40:19;;;;;;;3.03;0.52;;;2.50;99.90;;;;;;4896566;29;20132;-73
2024/01/27 02:42:46;;;;;;;1.13;0.40;;;2.40;99.90;;;;;;4896410;29;20052;-73
2024/01/27 02:45:13;;;;;;;2.35;0.50;;;2.40;99.90;;;;;;4881076;29;20044;-73
2024/01/27 02:47:41;;;;;;;2.00;0.50;;;2.40;99.90;;;;;;4896474;29;20135;-74
2024/01/27 02:50:08;;;;;;;3.30;0.60;;;2.40;99.90;;;;;;4896532;29;20139;-73
2024/01/27 02:52:35;;;;;;;0.93;0.40;;;2.40;99.90;;;;;;4880933;29;20576;-73
2024/01/27 02:55:03;;;;;;;2.97;0.50;;;2.40;99.90;;;;;;4896607;29;20041;-73
2024/01/27 02:57:30;;;;;;;2.97;0.67;;;2.30;99.90;;;;;;4891615;29;20131;-72
2024/01/27 02:59:58;;;;;;;2.73;0.60;;;2.30;99.90;;;;;;4881045;29;20087;-73
2024/01/27 03:02:25;;;;;;;4.27;0.70;;;2.20;99.90;;;;;;4897445;29;20043;-73
2024/01/27 03:04:52;;;;;;;2.23;0.70;;;2.20;99.90;;;;;;4896345;29;20397;-73
2024/01/27 03:07:19;;;;;;;1.30;0.40;;;2.20;99.90;;;;;;4897435;29;20040;-74
2024/01/27 03:09:46;;;;;;;3.37;0.50;;;2.20;99.90;;;;;;4896217;29;20124;-74
2024/01/27 03:12:15;;;;;;;2.50;0.83;;;2.20;99.90;;;;;;4896335;29;20048;-74
2024/01/27 03:14:42;;;;;;;3.67;1.10;;;2.20;99.90;;;;;;4890285;29;20052;-74
2024/01/27 03:17:09;;;;;;;3.57;1.07;;;2.30;99.90;;;;;;4890645;29;20060;-74
2024/01/27 03:19:36;;;;;;;2.88;0.77;;;2.30;99.90;;;;;;4874443;29;20485;-74
2024/01/27 03:22:04;;;;;;;2.63;0.80;;;2.30;99.90;;;;;;4896007;29;20521;-74
2024/01/27 03:24:31;;;;;;;4.67;1.00;;;2.30;99.90;;;;;;4896208;29;20135;-74
2024/01/27 03:26:58;;;;;;;3.87;0.80;;;2.30;99.90;;;;;;4897692;29;20075;-74
2024/01/27 03:29:25;;;;;;;5.30;0.77;;;2.20;99.90;;;;;;4900902;29;20167;-74
2024/01/27 03:31:52;;;;;;;2.70;0.90;;;2.20;99.90;;;;;;4899796;29;20069;-74
2024/01/27 03:34:24;;;;;;;3.55;0.68;;;2.20;99.90;;;;;;4899939;29;20081;-73
2024/01/27 03:36:51;;;;;;;2.22;0.60;;;2.20;99.90;;;;;;4884893;29;20048;-73
2024/01/27 03:39:18;;;;;;;3.63;0.60;;;2.10;99.90;;;;;;4900887;29;20493;-73
2024/01/27 03:41:45;;;;;;;3.17;0.60;;;2.10;99.90;;;;;;4883197;29;20478;-73
2024/01/27 03:44:12;;;;;;;2.75;0.57;;;2.10;99.90;;;;;;4899657;29;20045;-73
2024/01/27 03:46:39;;;;;;;1.00;0.50;;;2.00;99.90;;;;;;4899447;29;20076;-73
2024/01/27 03:49:06;;;;;;;3.65;0.80;;;2.00;99.90;;;;;;4868509;29;20048;-73
2024/01/27 03:51:33;;;;;;;1.70;0.70;;;2.00;99.90;;;;;;4899432;29;20052;-73
2024/01/27 03:54:00;;;;;;;2.43;0.70;;;2.00;99.90;;;;;;4883899;29;20131;-73
2024/01/27 03:56:27;;;;;;;1.83;0.60;;;2.00;99.90;;;;;;4899238;29;20109;-73
2024/01/27 03:58:54;;;;;;;2.10;0.60;;;2.00;99.90;;;;;;4900695;29;20032;-74
2024/01/27 04:01:22;;;;;;;1.67;0.80;;;2.00;99.90;;;;;;4883822;29;20052;-73
2024/01/27 04:03:49;;;;;;;1.60;0.50;;;2.00;99.90;;;;;;4883284;29;20041;-73
2024/01/27 04:06:16;;;;;;;1.80;0.50;;;1.90;99.90;;;;;;4899139;29;20052;-73
2024/01/27 04:08:45;;;;;;;2.87;0.50;;;1.90;99.90;;;;;;4899159;29;20079;-73
2024/01/27 04:11:22;;;;;;;4.50;0.60;;;1.90;99.90;;;;;;4869214;29;20497;-73
2024/01/27 04:13:50;;;;;;;2.33;0.60;;;1.80;99.90;;;;;;4899053;29;20092;-73
2024/01/27 04:16:18;;;;;;;3.83;0.80;;;1.80;99.90;;;;;;4900223;29;20557;-73
2024/01/27 04:18:45;;;;;;;1.27;0.50;;;1.80;99.90;;;;;;4899076;29;20076;-73
2024/01/27 04:21:12;;;;;;;3.23;0.87;;;1.80;99.90;;;;;;4898976;29;20118;-74
2024/01/27 04:23:39;;;;;;;1.53;0.50;;;1.80;99.90;;;;;;4898927;29;20096;-74
2024/01/27 04:26:06;;;;;;;3.77;0.83;;;1.70;99.90;;;;;;4899915;29;20041;-74
2024/01/27 04:28:33;;;;;;;2.53;0.57;;;1.70;99.90;;;;;;4898690;29;20055;-74
2024/01/27 04:31:00;;;;;;;3.08;0.57;;;1.70;99.90;;;;;;4898720;29;20041;-74
2024/01/27 04:33:27;;;;;;;2.10;0.60;;;1.70;99.90;;;;;;4898520;29;20077;-74
2024/01/27 04:35:55;;;;;;;4.20;0.70;;;1.70;99.90;;;;;;4899828;29;20097;-74
2024/01/27 04:38:22;;;;;;;1.30;0.50;;;1.60;99.90;;;;;;4898814;29;20401;-73
2024/01/27 04:40:50;;;;;;;1.27;0.60;;;1.60;99.90;;;;;;4898633;29;20052;-74
2024/01/27 04:43:20;;;;;;;1.58;0.65;;;1.60;99.90;;;;;;4898449;29;20049;-74
2024/01/27 04:45:50;;;;;;;3.58;0.55;;;1.60;99.90;;;;;;4898475;29;20068;-74
2024/01/27 04:48:17;;;;;;;2.03;0.73;;;1.60;99.90;;;;;;4879861;29;20049;-74
2024/01/27 04:50:44;;;;;;;3.13;0.60;;;1.60;99.90;;;;;;4867520;29;20051;-74
2024/01/27 04:53:12;;;;;;;1.77;0.60;;;1.60;99.90;;;;;;4882894;29;20052;-74
2024/01/27 04:55:38;;;;;;;0.93;0.43;;;1.60;99.90;;;;;;4883048;29;20048;-74
2024/01/27 04:58:07;;;;;;;3.17;0.60;;;1.60;99.90;;;;;;4880361;29;20045;-74
2024/01/27 05:00:34;;;;;;;3.63;1.03;;;1.60;99.90;;;;;;4882644;29;20163;-74
2024/01/27 05:03:04;;;;;;;1.90;0.80;;;1.60;99.90;;;;;;4880307;29;20041;-74
2024/01/27 05:05:32;;;;;;;3.17;1.33;;;1.60;99.90;;;;;;4898031;29;20382;-74
2024/01/27 05:08:03;;;;;;;3.97;0.90;;;1.60;99.90;;;;;;4898158;29;20450;-73
2024/01/27 05:10:30;;;;;;;4.23;1.50;;;1.60;99.90;;;;;;4882580;29;20426;-73
2024/01/27 05:12:57;;;;;;;3.17;1.57;;;1.60;99.90;;;;;;4899181;29;20068;-73
2024/01/27 05:15:24;;;;;;;4.93;1.37;;;1.60;99.90;;;;;;4898025;29;20037;-72
2024/01/27 05:17:51;;;;;;;6.33;1.57;;;1.60;99.90;;;;;;4897669;29;20442;-73
2024/01/27 05:20:19;;;;;;;2.83;1.20;;;1.70;99.90;;;;;;4882378;29;20474;-73
2024/01/27 05:22:46;;;;;;;3.77;1.40;;;1.70;99.90;;;;;;4897905;29;20043;-73
2024/01/27 05:25:13;;;;;;;3.40;1.67;;;1.70;99.90;;;;;;4873058;29;20049;-73
2024/01/27 05:27:40;;;;;;;4.23;1.77;;;1.70;99.90;;;;;;4897571;29;20091;-74
2024/01/27 05:30:08;;;;;;;5.00;1.80;;;1.70;99.90;;;;;;4898896;29;20048;-73
2024/01/27 05:32:35;;;;;;;7.57;2.70;;;1.70;99.90;;;;;;4897693;29;20040;-73
2024/01/27 05:35:05;;;;;;;7.07;2.97;;;1.70;99.90;;;;;;4898767;29;20040;-73
2024/01/27 05:37:32;;;;;;;6.50;2.60;;;1.80;99.90;;;;;;4897577;29;20052;-74
2024/01/27 05:39:59;;;;;;;6.33;2.43;;;1.80;99.90;;;;;;4897563;29;20041;-73
2024/01/27 05:42:26;;;;;;;4.60;1.90;;;1.80;99.90;;;;;;4897364;29;20041;-73
2024/01/27 05:44:53;;;;;;;4.50;1.47;;;1.80;99.90;;;;;;4897351;29;20111;-73
2024/01/27 05:47:20;;;;;;;6.43;2.20;;;1.70;99.90;;;;;;4881726;29;20418;-73
2024/01/27 05:49:47;;;;;;;4.17;2.00;;;1.70;99.90;;;;;;4881898;29;20048;-73
2024/01/27 05:52:14;;;;;;;5.33;2.20;;;1.70;99.90;;;;;;4898361;29;20140;-73
2024/01/27 05:54:52;;;;;;;8.13;2.27;;;1.70;99.90;;;;;;4897402;29;20048;-72
2024/01/27 05:57:19;;;;;;;5.47;1.90;;;1.70;99.90;;;;;;4897037;29;20481;-73
2024/01/27 05:59:47;;;;;;;6.60;1.90;;;1.70;99.90;;;;;;4881603;29;20064;-73
2024/01/27 06:02:14;;;;;;;4.13;2.00;;;1.70;99.90;;;;;;4897128;29;20040;-73
2024/01/27 06:04:41;;;;;;;5.93;1.57;;;1.70;99.90;;;;;;4881633;29;20053;-73
2024/01/27 06:07:08;;;;;;;4.77;1.97;;;1.70;99.90;;;;;;4881485;29;20048;-73
2024/01/27 06:09:37;;;;;;;4.60;1.63;;;1.60;99.90;;;;;;4881721;29;20048;-72
2024/01/27 06:12:05;;;;;;;3.63;1.50;;;1.60;99.90;;;;;;4881503;29;20072;-73
2024/01/27 06:14:32;;;;;;;5.33;2.17;;;1.50;99.90;;;;;;4881427;29;20052;-72
2024/01/27 06:17:00;;;;;;;5.53;1.80;;;1.50;99.90;;;;;;4898123;29;20049;-73
2024/01/27 06:19:27;;;;;;;3.40;1.57;;;1.40;99.90;;;;;;4881260;29;20052;-73
2024/01/27 06:21:54;;;;;;;3.13;1.47;;;1.40;99.90;;;;;;4898068;29;20047;-73
2024/01/27 06:24:21;;;;;;;4.53;1.63;;;1.40;99.90;;;;;;4896770;29;20036;-73
2024/01/27 06:26:49;;;;;;;4.23;1.57;;;1.40;99.90;;;;;;4896577;29;20489;-73
2024/01/27 06:29:16;;;;;;;3.20;1.43;;;1.40;99.90;;;;;;4898030;29;20044;-73
2024/01/27 06:31:43;;;;;;;4.20;1.50;;;1.40;99.90;;;;;;4897793;29;20037;-73
2024/01/27 06:34:10;;;;;;;3.70;1.50;;;1.40;99.90;;;;;;4896620;29;20072;-72
2024/01/27 06:36:37;;;;;;;4.23;1.43;;;1.40;99.90;;;;;;4896558;29;20068;-73
2024/01/27 06:39:04;;;;;;;2.70;1.17;;;1.30;99.90;;;;;;4896448;29;20414;-72
2024/01/27 06:41:31;;;;;;;2.97;1.47;;;1.30;99.90;;;;;;4897574;29;20561;-73
2024/01/27 06:43:58;;;;;;;4.43;1.90;;;1.30;99.90;;;;;;4879481;29;20387;-73
2024/01/27 06:46:25;;;;;;;4.07;1.07;;;1.30;99.90;;;;;;4896464;29;20040;-73
2024/01/27 06:48:52;;;;;;;2.67;1.30;;;1.30;99.90;;;;;;4896465;29;20044;-73
2024/01/27 06:51:19;;;;;;;4.07;1.70;;;1.30;99.90;;;;;;4880943;29;20049;-73
2024/01/27 06:53:48;;;;;;;3.00;1.10;;;1.20;99.90;;;;;;4896414;29;20119;-73
2024/01/27 06:56:15;;;;;;;2.53;1.30;;;1.20;99.90;;;;;;4878549;29;20057;-73
2024/01/27 06:58:42;;;;;;;3.43;1.50;;;1.20;99.90;;;;;;4896371;29;20037;-73
2024/01/27 07:01:10;;;;;;;3.07;1.27;;;1.20;99.90;;;;;;4880873;29;20080;-73
2024/01/27 07:03:39;;;;;;;3.07;1.30;;;1.20;99.90;;;;;;4884911;29;20108;-73
2024/01/27 07:06:06;;;;;;;3.17;1.23;;;1.20;99.90;;;;;;4901427;29;20045;-73
2024/01/27 07:08:33;;;;;;;4.17;1.27;;;1.10;99.90;;;;;;4884784;29;20052;-73
2024/01/27 07:11:04;;;;;;;3.37;1.73;;;1.10;99.90;;;;;;4900122;29;20501;-73
2024/01/27 07:13:32;;;;;;;2.77;1.10;;;1.10;99.90;;;;;;4881511;29;20045;-73
2024/01/27 07:15:59;;;;;;;4.43;2.63;;;1.10;99.90;;;;;;4881533;29;20375;-73
2024/01/27 07:18:26;;;;;;;3.20;1.33;;;1.10;99.90;;;;;;4894060;29;20040;-73
2024/01/27 07:20:54;;;;;;;2.47;1.03;;;1.10;99.90;;;;;;4909410;29;20045;-72
2024/01/27 07:23:22;;;;;;;4.53;1.60;;;1.10;99.90;;;;;;4886981;29;20048;-73
2024/01/27 07:25:49;;;;;;;3.67;1.30;;;1.10;99.90;;;;;;4884323;29;20041;-73
2024/01/27 07:28:18;;;;;;;6.03;2.77;;;1.10;99.90;;;;;;4899753;29;20056;-74
2024/01/27 07:30:45;;;;;;;5.63;1.83;;;1.10;99.90;;;;;;4869259;29;20053;-74
2024/01/27 07:33:13;;;;;;;4.87;2.20;;;1.10;99.90;;;;;;4884148;29;20057;-74
2024/01/27 07:35:40;;;;;;;6.80;4.10;;;1.20;99.90;;;;;;4899539;29;20498;-74
2024/01/27 07:38:08;;;;;;;6.67;3.40;;;1.30;99.90;;;;;;4899507;29;20145;-74
2024/01/27 07:40:35;;;;;;;7.30;3.90;;;1.30;99.90;;;;;;4899798;29;20036;-74
2024/01/27 07:43:03;;;;;;;5.10;2.80;;;1.40;99.90;;;;;;4899615;29;20049;-74
2024/01/27 07:45:30;;;;;;;9.17;3.47;;;1.40;99.90;;;;;;4899624;29;20516;-74
2024/01/27 07:47:58;;;;;;;7.53;3.07;;;1.40;99.90;;;;;;4900778;29;20053;-72
2024/01/27 07:50:28;;;;;;;7.23;3.03;;;1.50;99.90;;;;;;4880971;29;20053;-73
2024/01/27 07:52:55;;;;;;;5.80;2.90;;;1.50;99.90;;;;;;4897822;29;20060;-74
2024/01/27 07:55:22;;;;;;;7.00;3.57;;;1.50;99.90;;;;;;4883767;29;20052;-74
2024/01/27 07:57:49;;;;;;;7.63;2.80;;;1.50;99.90;;;;;;4899168;29;20041;-74
2024/01/27 08:00:16;;;;;;;7.03;4.00;;;1.50;99.90;;;;;;4883568;29;20459;-74
2024/01/27 08:02:44;;;;;;;5.20;3.23;;;1.60;99.90;;;;;;4883787;29;20052;-74
2024/01/27 08:05:11;;;;;;;8.03;3.93;;;1.60;99.90;;;;;;4899076;29;20084;-74
2024/01/27 08:07:38;;;;;;;6.70;3.70;;;1.70;99.90;;;;;;4899094;29;20081;-73
2024/01/27 08:10:05;;;;;;;5.40;3.30;;;1.70;99.90;;;;;;4883699;29;20051;-74
2024/01/27 08:12:32;;;;;;;7.53;3.47;;;1.70;99.90;;;;;;4882839;29;20076;-73
2024/01/27 08:15:01;;;;;;;6.83;3.53;;;1.70;99.90;;;;;;4883289;29;20128;-74
2024/01/27 08:17:28;;;;;;;10.10;3.43;;;1.70;99.90;;;;;;4898916;29;20048;-74
2024/01/27 08:19:56;;;;;;;6.57;3.40;;;1.70;99.90;;;;;;4898984;29;20041;-73
2024/01/27 08:22:23;;;;;;;5.47;2.90;;;1.80;99.90;;;;;;4899014;29;20096;-74
2024/01/27 08:24:50;;;;;;;9.50;4.43;;;1.80;99.90;;;;;;4883425;29;20047;-73
2024/01/27 08:27:17;;;;;;;11.93;6.07;;;1.90;99.90;;;;;;4898830;29;20148;-74
2024/01/27 08:29:44;;;;;;;9.73;5.73;;;1.90;99.90;;;;;;4898774;29;20434;-74
2024/01/27 08:32:12;;;;;;;13.87;7.37;;;2.00;99.90;;;;;;4883339;29;20045;-73
2024/01/27 08:34:39;;;;;;;10.50;6.20;;;2.00;99.90;;;;;;4883249;29;20112;-73
2024/01/27 08:37:18;;;;;;;10.23;5.57;;;2.10;99.90;;;;;;4895220;29;20096;-73
2024/01/27 08:39:45;;;;;;;10.67;6.20;;;2.10;99.90;;;;;;4899921;29;20402;-73
2024/01/27 08:42:13;;;;;;;10.00;6.10;;;2.10;99.90;;;;;;4883167;29;20131;-73
2024/01/27 08:44:40;;;;;;;13.07;6.93;;;2.20;99.90;;;;;;4867579;29;20131;-74
2024/01/27 08:47:07;;;;;;;14.33;6.30;;;2.20;99.90;;;;;;4898564;29;20120;-73
2024/01/27 08:49:34;;;;;;;15.40;7.57;;;2.30;99.90;;;;;;4883202;29;20041;-73
2024/01/27 08:52:02;;;;;;;14.30;8.30;;;2.30;99.90;;;;;;4898383;29;20053;-73
2024/01/27 08:54:29;;;;;;;14.93;8.43;;;2.40;99.90;;;;;;4898294;29;20044;-73
2024/01/27 08:56:56;;;;;;;12.80;7.73;;;2.40;99.90;;;;;;4898256;29;20048;-74
2024/01/27 08:59:23;;;;;;;12.67;6.93;;;2.40;99.90;;;;;;4898215;29;20100;-73
2024/01/27 09:01:50;;;;;;;11.50;6.23;;;2.50;99.90;;;;;;4882558;29;20517;-73
2024/01/27 09:04:18;;;;;;;10.90;6.33;;;2.50;99.90;;;;;;4892855;29;20047;-73
2024/01/27 09:06:45;;;;;;;8.10;5.25;;;2.60;99.90;;;;;;4899241;29;20075;-73
2024/01/27 09:09:12;;;;;;;13.53;6.60;;;2.60;99.90;;;;;;4867222;29;20131;-74
2024/01/27 09:11:39;;;;;;;13.50;6.50;;;2.60;99.90;;;;;;4882748;29;20051;-73
2024/01/27 09:14:07;;;;;;;12.07;6.93;;;2.70;99.90;;;;;;4896414;29;20044;-73
2024/01/27 09:16:34;;;;;;;13.38;7.00;;;2.70;99.90;;;;;;4882571;29;20056;-73
2024/01/27 09:19:02;;;;;;;11.88;7.10;;;2.80;99.90;;;;;;4897634;29;20048;-73
2024/01/27 09:21:30;;;;;;;10.63;6.43;;;2.80;99.90;;;;;;4882378;29;20084;-73
2024/01/27 09:23:58;;;;;;;10.73;6.90;;;2.90;99.90;;;;;;4897345;29;20045;-73
2024/01/27 09:26:26;;;;;;;8.40;4.90;;;2.90;99.90;;;;;;4882347;29;20386;-73
2024/01/27 09:28:55;;;;;;;12.53;6.77;;;3.00;99.90;;;;;;4898913;29;20048;-74
2024/01/27 09:31:23;;;;;;;8.85;5.32;;;3.00;99.90;;;;;;4882233;29;20394;-74
2024/01/27 09:33:55;;;;;;;11.00;5.93;;;3.00;99.90;;;;;;4898636;29;20112;-74
2024/01/27 09:36:22;;;;;;;8.90;5.90;;;3.00;99.90;;;;;;4898622;29;20131;-74
2024/01/27 09:38:50;;;;;;;11.95;6.85;;;3.00;99.90;;;;;;4898704;29;20047;-73
2024/01/27 09:41:18;;;;;;;9.50;5.82;;;2.90;99.90;;;;;;4897564;29;20119;-73
2024/01/27 09:43:46;;;;;;;7.65;5.22;;;2.90;99.90;;;;;;4897337;29;20111;-78
2024/01/27 09:46:15;;;;;;;10.33;5.60;;;2.90;99.90;;;;;;4881696;29;20045;-73
2024/01/27 09:48:43;;;;;;;10.87;6.70;;;2.90;99.90;;;;;;4897237;29;20048;-74
2024/01/27 09:51:11;;;;;;;12.27;6.53;;;2.90;99.90;;;;;;4897111;29;20052;-73
2024/01/27 09:53:38;;;;;;;14.52;7.40;;;2.90;99.90;;;;;;4881633;29;20052;-74
2024/01/27 09:56:07;;;;;;;13.73;8.10;;;3.00;99.90;;;;;;4898544;29;20045;-74
2024/01/27 09:58:34;;;;;;;13.67;7.67;;;3.00;99.90;;;;;;4897138;29;20048;-74
2024/01/27 10:01:02;;;;;;;14.97;7.60;;;3.00;99.90;;;;;;4896875;29;20581;-74
2024/01/27 10:03:30;;;;;;;13.80;7.60;;;3.10;99.90;;;;;;4898171;29;20062;-74
2024/01/27 10:05:58;;;;;;;13.33;7.87;;;3.10;99.90;;;;;;4898201;29;20033;-73
2024/01/27 10:08:25;;;;;;;15.50;8.40;;;3.20;99.90;;;;;;4898031;29;20055;-73
2024/01/27 10:10:56;;;;;;;13.53;8.80;;;3.20;99.90;;;;;;4898098;29;20131;-73
2024/01/27 10:13:26;;;;;;;13.27;8.32;;;3.30;99.90;;;;;;4897093;29;20100;-78
2024/01/27 10:16:01;;;;;;;13.82;8.25;;;3.30;99.90;;;;;;4896852;29;20036;-74
2024/01/27 10:18:28;;;;;;;12.75;8.18;;;3.40;99.90;;;;;;4896939;29;20036;-72
2024/01/27 10:20:56;;;;;;;11.00;6.90;;;3.40;99.90;;;;;;4881513;29;20037;-73
2024/01/27 10:23:24;;;;;;;17.60;8.90;;;3.50;99.90;;;;;;4896553;29;20053;-74
2024/01/27 10:25:53;;;;;;;10.20;7.18;;;3.50;99.90;;;;;;4881515;29;20075;-73
2024/01/27 10:28:24;;;;;;;9.63;6.30;;;3.60;99.90;;;;;;4881761;29;20053;-73
2024/01/27 10:30:51;;;;;;;13.93;7.22;;;3.60;99.90;;;;;;4896791;29;20049;-77
2024/01/27 10:33:18;;;;;;;13.93;7.75;;;3.70;99.90;;;;;;4897954;29;20055;-76
2024/01/27 10:35:45;;;;;;;14.02;8.77;;;3.70;99.90;;;;;;4896195;29;20068;-77
2024/01/27 10:38:12;;;;;;;13.70;7.75;;;3.80;99.90;;;;;;4865727;29;20052;-76
2024/01/27 10:40:40;;;;;;;13.30;7.47;;;3.80;99.90;;;;;;4896478;29;20053;-75
2024/01/27 10:43:08;;;;;;;12.95;8.05;;;3.90;99.90;;;;;;4896503;29;20063;-76
2024/01/27 10:45:36;;;;;;;13.05;8.63;;;4.00;99.90;;;;;;4896697;29;20064;-76
2024/01/27 10:48:05;;;;;;;14.10;7.85;;;4.00;99.90;;;;;;4881179;29;20056;-77
2024/01/27 10:50:37;;;;;;;14.45;9.38;;;4.10;99.90;;;;;;4881031;29;20048;-75
2024/01/27 10:53:28;;;;;;;14.13;8.48;;;4.20;99.90;;;;;;4897724;29;20048;-75
2024/01/27 10:55:57;;;;;;;11.88;7.00;;;4.30;99.90;;;;;;4885734;29;20041;-76
2024/01/27 10:58:26;;;;;;;13.32;8.00;;;4.30;99.90;;;;;;4881012;29;20101;-76
2024/01/27 11:00:55;;;;;;;13.02;7.50;;;4.30;99.90;;;;;;4896515;29;20063;-76
2024/01/27 11:03:23;;;;;;;13.20;7.75;;;4.40;99.90;;;;;;4897704;29;20041;-77
2024/01/27 11:05:54;;;;;;;14.30;7.88;;;4.40;99.90;;;;;;4880882;29;20536;-77
2024/01/27 11:08:27;;;;;;;11.35;7.00;;;4.50;99.90;;;;;;4897577;29;20100;-77
2024/01/27 11:10:55;;;;;;;13.77;7.85;;;4.50;99.90;;;;;;4897548;29;20426;-75
2024/01/27 11:13:24;;;;;;;13.23;6.55;;;4.60;99.90;;;;;;4897426;29;20060;-74
2024/01/27 11:15:53;;;;;;;14.40;8.23;;;4.60;99.90;;;;;;4897351;29;20058;-75
2024/01/27 11:18:20;;;;;;;17.95;9.50;;;4.70;99.90;;;;;;4896273;29;20049;-76
2024/01/27 11:20:47;;;;;;;16.05;8.30;;;4.80;99.90;;;;;;4877796;29;20073;-77
2024/01/27 11:23:15;;;;;;;16.95;8.30;;;4.90;99.90;;;;;;4854488;29;20044;-76
2024/01/27 11:25:42;;;;;;;15.75;7.72;;;4.90;99.90;;;;;;4880768;29;20053;-75
2024/01/27 11:28:14;;;;;;;14.68;7.63;;;5.00;99.90;;;;;;4896320;29;20053;-75
2024/01/27 11:30:48;;;;;;;11.35;6.45;;;5.00;99.90;;;;;;4896354;29;20067;-75
2024/01/27 11:33:15;;;;;;;12.20;6.15;;;5.10;99.90;;;;;;4896102;29;20055;-77
2024/01/27 11:35:42;;;;;;;14.25;7.20;;;5.10;99.90;;;;;;4880786;29;20048;-77
2024/01/27 11:38:09;;;;;;;13.70;7.38;;;5.10;99.90;;;;;;4880545;29;20466;-74
2024/01/27 11:40:47;;;;;;;11.27;6.65;;;5.20;99.90;;;;;;4877495;29;20045;-75
2024/01/27 11:43:14;;;;;;;15.95;6.95;;;5.20;99.90;;;;;;4891170;29;20140;-76
2024/01/27 11:45:41;;;;;;;11.00;7.07;;;5.30;99.90;;;;;;4895986;29;20040;-75
2024/01/27 11:48:08;;;;;;;15.52;7.05;;;5.30;99.90;;;;;;4863992;29;20049;-75
2024/01/27 11:50:36;;;;;;;15.32;7.53;;;5.40;99.90;;;;;;4899046;29;20036;-75
2024/01/27 11:53:07;;;;;;;18.65;9.02;;;5.40;99.90;;;;;;4868995;29;20121;-75
2024/01/27 11:55:34;;;;;;;17.90;8.20;;;5.40;99.90;;;;;;4899402;29;20051;-75
2024/01/27 11:58:01;;;;;;;15.10;7.55;;;5.50;99.90;;;;;;4899262;29;20055;-74
2024/01/27 12:00:28;;;;;;;13.85;7.13;;;5.50;99.90;;;;;;4883644;29;20052;-75
2024/01/27 12:02:55;;;;;;;12.95;6.63;;;5.60;99.90;;;;;;4884013;29;20040;-73
2024/01/27 12:05:22;;;;;;;12.93;5.68;;;5.60;99.90;;;;;;4881909;29;20077;-74
2024/01/27 12:07:50;;;;;;;11.10;6.13;;;5.60;99.90;;;;;;4883567;29;20052;-77
2024/01/27 12:10:17;;;;;;;12.88;5.82;;;5.70;99.90;;;;;;4880889;29;20447;-76
2024/01/27 12:12:44;;;;;;;11.55;6.97;;;5.80;99.90;;;;;;4880854;29;20072;-77
2024/01/27 12:15:12;;;;;;;9.77;5.38;;;5.80;99.90;;;;;;4883720;29;20048;-76
2024/01/27 12:17:39;;;;;;;11.85;5.35;;;5.80;99.90;;;;;;4881046;29;20057;-76
2024/01/27 12:20:15;;;;;;;14.45;6.40;;;5.90;99.90;;;;;;4880312;29;20491;-76
2024/01/27 12:22:42;;;;;;;9.70;4.75;;;5.90;99.90;;;;;;4896789;29;20414;-76
2024/01/27 12:25:16;;;;;;;8.50;4.75;;;6.00;99.90;;;;;;4880402;29;20117;-76
2024/01/27 12:27:43;;;;;;;9.18;4.97;;;6.00;99.90;;;;;;4880858;29;20055;-76
2024/01/27 12:30:11;;;;;;;9.18;4.93;;;6.10;99.90;;;;;;4880389;29;20072;-76
2024/01/27 12:32:39;;;;;;;11.27;4.75;;;6.10;99.90;;;;;;4866296;29;20052;-76
2024/01/27 12:35:07;;;;;;;9.32;4.68;;;6.20;99.90;;;;;;4867712;29;20055;-76
2024/01/27 12:37:36;;;;;;;10.68;4.57;;;6.20;99.90;;;;;;4882958;29;20044;-76
2024/01/27 12:40:16;;;;;;;11.95;4.50;;;6.30;99.90;;;;;;4867546;29;20053;-75
2024/01/27 12:42:48;;;;;;;15.07;6.20;;;6.30;99.90;;;;;;4898752;29;20041;-76
2024/01/27 12:45:15;;;;;;;9.02;4.88;;;6.40;99.90;;;;;;4899615;29;20036;-76
2024/01/27 12:47:42;;;;;;;13.23;5.40;;;6.40;99.90;;;;;;4882705;29;20051;-76
2024/01/27 12:50:09;;;;;;;8.10;3.60;;;6.50;99.90;;;;;;4898318;29;20056;-76
2024/01/27 12:52:37;;;;;;;12.18;4.43;;;6.50;99.90;;;;;;4899491;29;20059;-76
2024/01/27 12:55:08;;;;;;;9.85;3.53;;;6.50;99.90;;;;;;4882867;29;20049;-76